Impacts TAF Board
For situational awareness. Not to be used for flight planning purposes.
IDs:

KTPA - Tampa Intl Arpt, FL, US

Issued at 2335 UTC 16 Jul 2019
Updated at 0041 UTC 17 Jul 2019
Potential Impact None Slight Moderate High
Time<<17/13Z 17/14Z 17/15Z 17/16Z 17/17Z 17/18Z 17/19Z 17/20Z 17/21Z 17/22Z 17/23Z 18/00Z 18/01Z>>
Type PRVL PRVL PRVL PRVL PRVL PRVL PRVL PRVL PRVL PRVL PRVL PRVL PRVL
VIS >6 >6 >6 >6 >6 >6 >6 >6 >6 >6 >6 >6 >6
CIG 200 200 200 200 200 -- -- -- -- -- 200 200 200
Cover BKN BKN BKN BKN BKN SCT SCT SCT SCT SCT BKN BKN BKN
FltCat VFR VFR VFR VFR VFR VFR VFR VFR VFR VFR VFR VFR VFR
WX -- -- -- -- -- VCTS VCTS VCTS VCTS VCTS VCTS VCTS VCTS
WDir VRB VRB VRB VRB VRB 240 240 240 240 240 310 310 310
WSpd 3 3 3 3 3 7 7 7 7 7 5 5 5
WGst -- -- -- -- -- -- -- -- -- -- -- -- --
Raw TAF
KTPA 162335Z 1700/1806 32005KT P6SM VCTS SCT040CB BKN150
  TEMPO 1700/1702 VRB10G15KT 2SM TSRA BKN020CB OVC040
  FM170300 VRB03KT P6SM SCT030 BKN200
  FM171800 24007KT P6SM VCTS FEW045CB SCT110
  FM172300 31005KT P6SM VCTS SCT040CB BKN200


METAR Board
Radar Display
Forecast Discussion
For situational awareness. Not to be used for flight planning purposes.